Eaton, Colorado
Current Conditions -  °F | °C
As of 6:15 AM on Wednesday 22 Oct 2014 (Local Time) from KGXY Reporting Station
Clear Clear  
Wind Chill: 45°   Ceiling: Unl
Heat Index: 45°   Visibility: 10mi
Dew Point: 36°   Wind: 0mph
Humidity: 71%   Direction: NA
Pressure: 30.04"   Gusts: NA
Location:  40.53°N, 104.71°W
Report Text: KGXY 221215Z AUTO 00000KT 10SM CLR 07/02 A3004 RMK AO1
Loading
Personal Weather Stations






























Interactive Weather Map New forecast layout! Learn more

10-Day Weather Forecast

Advertisements
Track Severe Weather on mobile